sensor_id;sensor_type;location;lat;lon;timestamp;pressure;altitude;pressure_sealevel;temperature;humidity
38303;BME280;24103;42.454;27.400;2023-05-11T00:02:06;101279.88;;;11.27;100.00
38303;BME280;24103;42.454;27.400;2023-05-11T00:04:32;101282.66;;;11.23;100.00
38303;BME280;24103;42.454;27.400;2023-05-11T00:06:57;101285.06;;;11.11;100.00
38303;BME280;24103;42.454;27.400;2023-05-11T00:09:23;101288.41;;;11.14;100.00
38303;BME280;24103;42.454;27.400;2023-05-11T00:11:48;101281.63;;;11.09;100.00
38303;BME280;24103;42.454;27.400;2023-05-11T00:14:15;101288.84;;;11.05;100.00
38303;BME280;24103;42.454;27.400;2023-05-11T00:16:41;101297.66;;;10.86;100.00
38303;BME280;24103;42.454;27.400;2023-05-11T00:19:06;101299.41;;;10.87;100.00
38303;BME280;24103;42.454;27.400;2023-05-11T00:21:31;101290.22;;;11.14;100.00
38303;BME280;24103;42.454;27.400;2023-05-11T00:23:57;101289.56;;;11.09;100.00
38303;BME280;24103;42.454;27.400;2023-05-11T00:26:23;101284.13;;;11.12;100.00
38303;BME280;24103;42.454;27.400;2023-05-11T00:28:48;101295.44;;;10.96;100.00
38303;BME280;24103;42.454;27.400;2023-05-11T00:31:14;101288.81;;;10.87;100.00
38303;BME280;24103;42.454;27.400;2023-05-11T00:33:39;101297.97;;;11.17;100.00
38303;BME280;24103;42.454;27.400;2023-05-11T00:36:05;101290.53;;;11.25;100.00
38303;BME280;24103;42.454;27.400;2023-05-11T00:38:32;101300.31;;;11.42;100.00
38303;BME280;24103;42.454;27.400;2023-05-11T00:40:57;101291.09;;;11.32;100.00
38303;BME280;24103;42.454;27.400;2023-05-11T00:43:23;101300.59;;;10.99;100.00
38303;BME280;24103;42.454;27.400;2023-05-11T00:45:48;101297.09;;;11.35;100.00
38303;BME280;24103;42.454;27.400;2023-05-11T00:48:16;101294.94;;;11.61;100.00
38303;BME280;24103;42.454;27.400;2023-05-11T00:50:41;101293.94;;;11.64;100.00
38303;BME280;24103;42.454;27.400;2023-05-11T00:53:07;101298.59;;;11.76;100.00
38303;BME280;24103;42.454;27.400;2023-05-11T00:55:33;101302.28;;;11.73;100.00
38303;BME280;24103;42.454;27.400;2023-05-11T00:57:58;101301.84;;;11.29;100.00
38303;BME280;24103;42.454;27.400;2023-05-11T01:00:24;101306.66;;;11.20;100.00
38303;BME280;24103;42.454;27.400;2023-05-11T01:02:51;101300.03;;;11.83;100.00
38303;BME280;24103;42.454;27.400;2023-05-11T01:05:17;101303.03;;;11.75;100.00
38303;BME280;24103;42.454;27.400;2023-05-11T01:07:47;101308.28;;;11.23;100.00
38303;BME280;24103;42.454;27.400;2023-05-11T01:13:01;101308.25;;;10.67;100.00
38303;BME280;24103;42.454;27.400;2023-05-11T01:15:33;101299.38;;;10.49;100.00
38303;BME280;24103;42.454;27.400;2023-05-11T01:20:41;101287.44;;;10.41;100.00
38303;BME280;24103;42.454;27.400;2023-05-11T01:26:15;101284.75;;;10.22;100.00
38303;BME280;24103;42.454;27.400;2023-05-11T01:31:37;101270.09;;;9.53;100.00
38303;BME280;24103;42.454;27.400;2023-05-11T01:34:09;101267.81;;;9.66;100.00
38303;BME280;24103;42.454;27.400;2023-05-11T01:36:42;101267.50;;;9.73;100.00
38303;BME280;24103;42.454;27.400;2023-05-11T01:39:09;101263.81;;;10.17;100.00
38303;BME280;24103;42.454;27.400;2023-05-11T01:41:38;101259.03;;;10.25;100.00
38303;BME280;24103;42.454;27.400;2023-05-11T01:44:08;101254.25;;;10.73;100.00
38303;BME280;24103;42.454;27.400;2023-05-11T01:46:34;101254.72;;;10.62;100.00
38303;BME280;24103;42.454;27.400;2023-05-11T01:49:04;101256.25;;;10.68;100.00
38303;BME280;24103;42.454;27.400;2023-05-11T01:51:36;101254.84;;;11.34;100.00
38303;BME280;24103;42.454;27.400;2023-05-11T01:54:05;101250.16;;;11.21;100.00
38303;BME280;24103;42.454;27.400;2023-05-11T01:56:33;101253.00;;;10.99;100.00
38303;BME280;24103;42.454;27.400;2023-05-11T01:58:59;101252.72;;;11.05;100.00
38303;BME280;24103;42.454;27.400;2023-05-11T02:01:28;101259.81;;;11.40;100.00
38303;BME280;24103;42.454;27.400;2023-05-11T02:03:54;101256.75;;;11.13;100.00
38303;BME280;24103;42.454;27.400;2023-05-11T02:06:22;101256.41;;;11.01;100.00
38303;BME280;24103;42.454;27.400;2023-05-11T02:08:49;101249.81;;;11.10;100.00
38303;BME280;24103;42.454;27.400;2023-05-11T02:11:17;101255.47;;;11.56;100.00
38303;BME280;24103;42.454;27.400;2023-05-11T02:13:46;101254.63;;;11.38;100.00
38303;BME280;24103;42.454;27.400;2023-05-11T02:16:14;101240.03;;;11.82;100.00
38303;BME280;24103;42.454;27.400;2023-05-11T02:18:42;101244.13;;;11.37;100.00
38303;BME280;24103;42.454;27.400;2023-05-11T02:21:08;101232.03;;;11.31;100.00
38303;BME280;24103;42.454;27.400;2023-05-11T02:23:36;101236.91;;;11.21;100.00
38303;BME280;24103;42.454;27.400;2023-05-11T02:26:02;101248.84;;;10.94;100.00
38303;BME280;24103;42.454;27.400;2023-05-11T02:28:28;101250.22;;;11.20;100.00
38303;BME280;24103;42.454;27.400;2023-05-11T02:30:57;101242.31;;;11.55;100.00
38303;BME280;24103;42.454;27.400;2023-05-11T02:33:29;101243.66;;;11.64;100.00
38303;BME280;24103;42.454;27.400;2023-05-11T02:35:57;101234.81;;;11.63;100.00
38303;BME280;24103;42.454;27.400;2023-05-11T02:38:29;101227.84;;;11.62;100.00
38303;BME280;24103;42.454;27.400;2023-05-11T02:40:57;101222.94;;;11.72;100.00
38303;BME280;24103;42.454;27.400;2023-05-11T02:43:29;101234.59;;;11.85;100.00
38303;BME280;24103;42.454;27.400;2023-05-11T02:45:59;101245.22;;;12.19;100.00
38303;BME280;24103;42.454;27.400;2023-05-11T02:48:27;101251.31;;;12.37;100.00
38303;BME280;24103;42.454;27.400;2023-05-11T02:50:55;101259.03;;;11.73;100.00
38303;BME280;24103;42.454;27.400;2023-05-11T02:53:25;101262.81;;;11.15;100.00
38303;BME280;24103;42.454;27.400;2023-05-11T02:55:53;101252.72;;;11.05;100.00
38303;BME280;24103;42.454;27.400;2023-05-11T02:58:19;101247.00;;;10.96;100.00
38303;BME280;24103;42.454;27.400;2023-05-11T03:00:45;101250.44;;;10.98;100.00
38303;BME280;24103;42.454;27.400;2023-05-11T03:03:11;101258.22;;;10.82;100.00
38303;BME280;24103;42.454;27.400;2023-05-11T03:05:37;101249.31;;;10.65;100.00
38303;BME280;24103;42.454;27.400;2023-05-11T03:08:02;101246.44;;;10.70;100.00
38303;BME280;24103;42.454;27.400;2023-05-11T03:10:28;101249.94;;;10.70;100.00
38303;BME280;24103;42.454;27.400;2023-05-11T03:12:54;101254.38;;;10.70;100.00
38303;BME280;24103;42.454;27.400;2023-05-11T03:15:20;101263.47;;;10.64;100.00
38303;BME280;24103;42.454;27.400;2023-05-11T03:17:48;101256.66;;;10.78;100.00
38303;BME280;24103;42.454;27.400;2023-05-11T03:20:14;101261.59;;;11.22;100.00
38303;BME280;24103;42.454;27.400;2023-05-11T03:22:42;101261.50;;;11.23;100.00
38303;BME280;24103;42.454;27.400;2023-05-11T03:25:08;101263.47;;;11.37;100.00
38303;BME280;24103;42.454;27.400;2023-05-11T03:27:36;101263.47;;;11.37;100.00
38303;BME280;24103;42.454;27.400;2023-05-11T03:30:07;101260.28;;;11.48;100.00
38303;BME280;24103;42.454;27.400;2023-05-11T03:32:34;101263.88;;;11.47;100.00
38303;BME280;24103;42.454;27.400;2023-05-11T03:34:59;101258.19;;;11.72;100.00
38303;BME280;24103;42.454;27.400;2023-05-11T03:37:25;101262.50;;;11.75;100.00
38303;BME280;24103;42.454;27.400;2023-05-11T03:39:56;101266.75;;;11.77;100.00
38303;BME280;24103;42.454;27.400;2023-05-11T03:42:24;101271.88;;;11.80;100.00
38303;BME280;24103;42.454;27.400;2023-05-11T03:44:50;101272.69;;;12.00;100.00
38303;BME280;24103;42.454;27.400;2023-05-11T03:47:21;101269.84;;;12.86;100.00
38303;BME280;24103;42.454;27.400;2023-05-11T03:49:47;101249.56;;;13.47;100.00
38303;BME280;24103;42.454;27.400;2023-05-11T03:52:14;101242.09;;;14.13;100.00
38303;BME280;24103;42.454;27.400;2023-05-11T03:54:41;101241.78;;;14.61;100.00
38303;BME280;24103;42.454;27.400;2023-05-11T03:57:08;101232.06;;;15.28;100.00
38303;BME280;24103;42.454;27.400;2023-05-11T03:59:34;101212.72;;;16.42;84.85
38303;BME280;24103;42.454;27.400;2023-05-11T04:01:59;101197.59;;;16.67;74.96
38303;BME280;24103;42.454;27.400;2023-05-11T04:04:27;101223.09;;;16.08;81.71
38303;BME280;24103;42.454;27.400;2023-05-11T04:06:57;101215.41;;;15.65;81.80
38303;BME280;24103;42.454;27.400;2023-05-11T04:09:23;101237.63;;;15.11;88.65
38303;BME280;24103;42.454;27.400;2023-05-11T04:11:48;101243.09;;;15.50;87.91
38303;BME280;24103;42.454;27.400;2023-05-11T04:14:14;101240.09;;;15.67;84.98
38303;BME280;24103;42.454;27.400;2023-05-11T04:16:39;101236.16;;;15.47;84.91
38303;BME280;24103;42.454;27.400;2023-05-11T04:19:05;101245.03;;;14.93;88.15
38303;BME280;24103;42.454;27.400;2023-05-11T04:21:31;101253.63;;;14.55;94.84
38303;BME280;24103;42.454;27.400;2023-05-11T04:23:57;101262.97;;;14.77;94.52
38303;BME280;24103;42.454;27.400;2023-05-11T04:26:22;101247.97;;;15.96;92.19
38303;BME280;24103;42.454;27.400;2023-05-11T04:28:48;101190.06;;;19.33;63.31
38303;BME280;24103;42.454;27.400;2023-05-11T04:31:13;101145.75;;;21.88;50.07
38303;BME280;24103;42.454;27.400;2023-05-11T04:33:39;101138.38;;;23.17;45.32
38303;BME280;24103;42.454;27.400;2023-05-11T04:36:04;101100.97;;;26.45;37.83
38303;BME280;24103;42.454;27.400;2023-05-11T04:38:30;101087.78;;;28.01;34.66
38303;BME280;24103;42.454;27.400;2023-05-11T04:40:55;101075.59;;;29.26;32.02
38303;BME280;24103;42.454;27.400;2023-05-11T04:43:21;101105.94;;;25.93;36.16
38303;BME280;24103;42.454;27.400;2023-05-11T04:45:50;101150.03;;;23.00;41.48
38303;BME280;24103;42.454;27.400;2023-05-11T04:48:15;101175.31;;;21.50;45.26
38303;BME280;24103;42.454;27.400;2023-05-11T04:50:41;101184.63;;;21.56;46.14
38303;BME280;24103;42.454;27.400;2023-05-11T04:53:08;101157.38;;;24.21;40.14
38303;BME280;24103;42.454;27.400;2023-05-11T04:55:33;101163.34;;;23.02;41.28
38303;BME280;24103;42.454;27.400;2023-05-11T04:58:13;101190.75;;;20.99;45.86
38303;BME280;24103;42.454;27.400;2023-05-11T05:00:38;101220.78;;;19.29;51.68
38303;BME280;24103;42.454;27.400;2023-05-11T05:03:04;101228.13;;;18.84;53.83
38303;BME280;24103;42.454;27.400;2023-05-11T05:05:29;101235.88;;;18.20;57.64
38303;BME280;24103;42.454;27.400;2023-05-11T05:07:55;101245.94;;;17.47;61.91
38303;BME280;24103;42.454;27.400;2023-05-11T05:10:20;101259.69;;;16.69;68.30
38303;BME280;24103;42.454;27.400;2023-05-11T05:12:46;101269.38;;;16.20;72.31
38303;BME280;24103;42.454;27.400;2023-05-11T05:15:12;101285.41;;;15.54;80.37
38303;BME280;24103;42.454;27.400;2023-05-11T05:17:38;101296.56;;;15.19;86.54
38303;BME280;24103;42.454;27.400;2023-05-11T05:20:04;101295.47;;;15.49;83.69
38303;BME280;24103;42.454;27.400;2023-05-11T05:22:30;101306.81;;;15.93;77.97
38303;BME280;24103;42.454;27.400;2023-05-11T05:24:56;101290.16;;;16.15;77.10
38303;BME280;24103;42.454;27.400;2023-05-11T05:27:22;101272.31;;;18.33;65.84
38303;BME280;24103;42.454;27.400;2023-05-11T05:29:47;101230.50;;;21.15;50.30
38303;BME280;24103;42.454;27.400;2023-05-11T05:32:13;101223.59;;;20.53;50.08
38303;BME280;24103;42.454;27.400;2023-05-11T05:34:38;101246.56;;;19.63;52.42
38303;BME280;24103;42.454;27.400;2023-05-11T05:37:04;101239.47;;;19.20;53.69
38303;BME280;24103;42.454;27.400;2023-05-11T05:39:29;101254.09;;;19.69;54.00
38303;BME280;24103;42.454;27.400;2023-05-11T05:41:55;101251.38;;;19.80;51.97
38303;BME280;24103;42.454;27.400;2023-05-11T05:44:20;101247.25;;;18.68;54.35
38303;BME280;24103;42.454;27.400;2023-05-11T05:46:46;101257.06;;;19.01;56.21
38303;BME280;24103;42.454;27.400;2023-05-11T05:49:11;101254.09;;;19.15;55.16
38303;BME280;24103;42.454;27.400;2023-05-11T05:51:37;101240.78;;;19.79;53.13
38303;BME280;24103;42.454;27.400;2023-05-11T05:54:03;101240.22;;;20.47;51.33
38303;BME280;24103;42.454;27.400;2023-05-11T05:56:28;101229.19;;;21.10;47.15
38303;BME280;24103;42.454;27.400;2023-05-11T05:58:54;101215.84;;;23.33;43.11
38303;BME280;24103;42.454;27.400;2023-05-11T06:01:20;101216.56;;;23.62;42.31
38303;BME280;24103;42.454;27.400;2023-05-11T06:03:46;101224.03;;;22.60;43.45
38303;BME280;24103;42.454;27.400;2023-05-11T06:06:11;101241.03;;;21.85;45.57
38303;BME280;24103;42.454;27.400;2023-05-11T06:08:37;101253.97;;;21.04;48.54
38303;BME280;24103;42.454;27.400;2023-05-11T06:11:02;101249.91;;;18.90;46.29
38303;BME280;24103;42.454;27.400;2023-05-11T06:13:28;101265.03;;;19.24;50.23
38303;BME280;24103;42.454;27.400;2023-05-11T06:15:53;101250.22;;;20.75;44.98
38303;BME280;24103;42.454;27.400;2023-05-11T06:18:19;101235.72;;;21.17;43.15
38303;BME280;24103;42.454;27.400;2023-05-11T06:20:44;101265.63;;;19.48;46.09
38303;BME280;24103;42.454;27.400;2023-05-11T06:23:10;101262.84;;;19.18;48.22
38303;BME280;24103;42.454;27.400;2023-05-11T06:25:36;101238.84;;;21.51;43.12
38303;BME280;24103;42.454;27.400;2023-05-11T06:28:01;101224.75;;;22.62;41.09
38303;BME280;24103;42.454;27.400;2023-05-11T06:30:27;101179.50;;;24.92;35.96
38303;BME280;24103;42.454;27.400;2023-05-11T06:32:53;101188.13;;;23.94;37.06
38303;BME280;24103;42.454;27.400;2023-05-11T06:35:19;101178.78;;;25.72;34.92
38303;BME280;24103;42.454;27.400;2023-05-11T06:37:46;101170.66;;;27.97;31.46
38303;BME280;24103;42.454;27.400;2023-05-11T06:40:12;101148.03;;;28.84;30.76
38303;BME280;24103;42.454;27.400;2023-05-11T06:42:40;101140.53;;;28.43;29.01
38303;BME280;24103;42.454;27.400;2023-05-11T06:45:06;101165.91;;;25.82;32.63
38303;BME280;24103;42.454;27.400;2023-05-11T06:47:32;101167.44;;;25.77;33.56
38303;BME280;24103;42.454;27.400;2023-05-11T06:49:57;101169.56;;;27.38;32.51
38303;BME280;24103;42.454;27.400;2023-05-11T06:52:23;101165.88;;;25.99;32.34
38303;BME280;24103;42.454;27.400;2023-05-11T06:54:48;101205.91;;;22.98;37.24
38303;BME280;24103;42.454;27.400;2023-05-11T06:57:13;101220.84;;;21.13;40.10
38303;BME280;24103;42.454;27.400;2023-05-11T06:59:39;101221.69;;;21.23;41.30
38303;BME280;24103;42.454;27.400;2023-05-11T07:02:04;101212.72;;;24.68;35.60
38303;BME280;24103;42.454;27.400;2023-05-11T07:04:30;101178.56;;;27.15;31.49
38303;BME280;24103;42.454;27.400;2023-05-11T07:06:57;101172.00;;;26.63;30.93
38303;BME280;24103;42.454;27.400;2023-05-11T07:09:22;101175.56;;;27.10;30.33
38303;BME280;24103;42.454;27.400;2023-05-11T07:11:49;101170.19;;;28.44;28.03
38303;BME280;24103;42.454;27.400;2023-05-11T07:14:15;101204.56;;;24.51;33.47
38303;BME280;24103;42.454;27.400;2023-05-11T07:16:41;101212.28;;;24.03;33.96
38303;BME280;24103;42.454;27.400;2023-05-11T07:19:06;101203.34;;;24.37;34.06
38303;BME280;24103;42.454;27.400;2023-05-11T07:21:35;101212.22;;;22.71;36.75
38303;BME280;24103;42.454;27.400;2023-05-11T07:24:01;101221.28;;;21.28;38.83
38303;BME280;24103;42.454;27.400;2023-05-11T07:26:28;101206.00;;;23.68;34.89
38303;BME280;24103;42.454;27.400;2023-05-11T07:28:53;101199.09;;;26.32;32.14
38303;BME280;24103;42.454;27.400;2023-05-11T07:31:19;101188.84;;;28.47;28.32
38303;BME280;24103;42.454;27.400;2023-05-11T07:33:45;101168.66;;;31.82;25.45
38303;BME280;24103;42.454;27.400;2023-05-11T07:36:10;101143.19;;;32.78;24.07
38303;BME280;24103;42.454;27.400;2023-05-11T07:38:36;101140.97;;;30.71;24.46
38303;BME280;24103;42.454;27.400;2023-05-11T07:41:02;101182.06;;;27.47;28.72
38303;BME280;24103;42.454;27.400;2023-05-11T07:43:28;101186.75;;;24.91;30.86
38303;BME280;24103;42.454;27.400;2023-05-11T07:45:53;101217.13;;;23.47;33.26
38303;BME280;24103;42.454;27.400;2023-05-11T07:48:19;101245.47;;;21.38;37.20
38303;BME280;24103;42.454;27.400;2023-05-11T07:50:46;101240.81;;;21.10;38.91
38303;BME280;24103;42.454;27.400;2023-05-11T07:53:11;101245.94;;;23.65;36.68
38303;BME280;24103;42.454;27.400;2023-05-11T07:55:37;101228.88;;;21.81;37.73
38303;BME280;24103;42.454;27.400;2023-05-11T07:58:03;101247.41;;;20.87;39.46
38303;BME280;24103;42.454;27.400;2023-05-11T08:00:28;101266.38;;;20.44;41.07
38303;BME280;24103;42.454;27.400;2023-05-11T08:02:53;101263.28;;;20.59;40.57
38303;BME280;24103;42.454;27.400;2023-05-11T08:05:19;101286.25;;;19.69;45.16
38303;BME280;24103;42.454;27.400;2023-05-11T08:07:45;101284.84;;;18.89;45.84
38303;BME280;24103;42.454;27.400;2023-05-11T08:10:11;101295.69;;;18.65;49.44
38303;BME280;24103;42.454;27.400;2023-05-11T08:12:37;101305.16;;;19.03;45.57
38303;BME280;24103;42.454;27.400;2023-05-11T08:15:04;101302.75;;;18.43;47.07
38303;BME280;24103;42.454;27.400;2023-05-11T08:17:30;101302.59;;;18.56;47.86
38303;BME280;24103;42.454;27.400;2023-05-11T08:19:56;101305.53;;;17.83;49.60
38303;BME280;24103;42.454;27.400;2023-05-11T08:22:22;101313.28;;;17.64;50.35
38303;BME280;24103;42.454;27.400;2023-05-11T08:24:48;101335.78;;;17.48;51.75
38303;BME280;24103;42.454;27.400;2023-05-11T08:27:15;101314.16;;;18.34;50.44
38303;BME280;24103;42.454;27.400;2023-05-11T08:29:41;101303.06;;;19.06;48.97
38303;BME280;24103;42.454;27.400;2023-05-11T08:32:06;101313.91;;;18.71;49.75
38303;BME280;24103;42.454;27.400;2023-05-11T08:34:32;101319.66;;;18.55;51.47
38303;BME280;24103;42.454;27.400;2023-05-11T08:36:57;101315.72;;;18.14;51.48
38303;BME280;24103;42.454;27.400;2023-05-11T08:39:26;101332.28;;;18.64;52.23
38303;BME280;24103;42.454;27.400;2023-05-11T08:41:52;101317.72;;;19.34;48.02
38303;BME280;24103;42.454;27.400;2023-05-11T08:44:18;101313.44;;;19.00;49.11
38303;BME280;24103;42.454;27.400;2023-05-11T08:46:45;101313.56;;;18.87;47.24
38303;BME280;24103;42.454;27.400;2023-05-11T08:49:13;101315.38;;;18.64;48.26
38303;BME280;24103;42.454;27.400;2023-05-11T08:51:39;101314.84;;;17.66;51.49
38303;BME280;24103;42.454;27.400;2023-05-11T08:54:05;101331.09;;;17.88;52.22
38303;BME280;24103;42.454;27.400;2023-05-11T08:56:33;101336.84;;;17.94;52.84
38303;BME280;24103;42.454;27.400;2023-05-11T08:58:59;101337.38;;;17.86;53.48
38303;BME280;24103;42.454;27.400;2023-05-11T09:01:27;101316.13;;;17.25;55.36
38303;BME280;24103;42.454;27.400;2023-05-11T09:03:53;101348.56;;;17.56;54.19
38303;BME280;24103;42.454;27.400;2023-05-11T09:06:19;101308.34;;;17.46;52.98
38303;BME280;24103;42.454;27.400;2023-05-11T09:08:45;101315.81;;;16.93;54.74
38303;BME280;24103;42.454;27.400;2023-05-11T09:11:11;101321.47;;;17.25;56.85
38303;BME280;24103;42.454;27.400;2023-05-11T09:13:37;101303.81;;;18.07;55.69
38303;BME280;24103;42.454;27.400;2023-05-11T09:16:02;101321.16;;;17.65;54.53
38303;BME280;24103;42.454;27.400;2023-05-11T09:18:28;101321.56;;;17.24;55.68
38303;BME280;24103;42.454;27.400;2023-05-11T09:20:54;101313.91;;;17.19;54.69
38303;BME280;24103;42.454;27.400;2023-05-11T09:23:24;101316.97;;;16.76;56.17
38303;BME280;24103;42.454;27.400;2023-05-11T09:25:53;101324.84;;;16.40;55.16
38303;BME280;24103;42.454;27.400;2023-05-11T09:28:25;101307.09;;;16.65;55.61
38303;BME280;24103;42.454;27.400;2023-05-11T09:30:52;101336.25;;;16.55;54.79
38303;BME280;24103;42.454;27.400;2023-05-11T09:33:24;101312.44;;;16.65;56.29
38303;BME280;24103;42.454;27.400;2023-05-11T09:35:50;101322.69;;;16.46;56.99
38303;BME280;24103;42.454;27.400;2023-05-11T09:38:16;101323.97;;;16.53;55.94
38303;BME280;24103;42.454;27.400;2023-05-11T09:40:51;101339.97;;;16.53;60.41
38303;BME280;24103;42.454;27.400;2023-05-11T09:43:24;101323.44;;;17.10;61.43
38303;BME280;24103;42.454;27.400;2023-05-11T09:45:52;101322.31;;;17.50;60.87
38303;BME280;24103;42.454;27.400;2023-05-11T09:50:44;101334.31;;;17.20;64.20
38303;BME280;24103;42.454;27.400;2023-05-11T09:53:10;101322.50;;;17.95;64.88
38303;BME280;24103;42.454;27.400;2023-05-11T09:55:36;101330.88;;;17.91;59.66
38303;BME280;24103;42.454;27.400;2023-05-11T09:58:02;101323.63;;;18.04;57.29
38303;BME280;24103;42.454;27.400;2023-05-11T10:00:28;101341.69;;;17.65;58.84
38303;BME280;24103;42.454;27.400;2023-05-11T10:02:58;101325.34;;;17.21;60.41
38303;BME280;24103;42.454;27.400;2023-05-11T10:05:25;101348.84;;;16.53;65.95
38303;BME280;24103;42.454;27.400;2023-05-11T10:07:58;101330.59;;;16.21;67.79
38303;BME280;24103;42.454;27.400;2023-05-11T10:10:30;101330.16;;;16.28;70.84
38303;BME280;24103;42.454;27.400;2023-05-11T10:13:00;101329.53;;;16.11;68.57
38303;BME280;24103;42.454;27.400;2023-05-11T10:15:27;101331.56;;;16.20;68.08
38303;BME280;24103;42.454;27.400;2023-05-11T10:17:55;101319.59;;;16.26;66.34
38303;BME280;24103;42.454;27.400;2023-05-11T10:20:21;101346.81;;;16.06;66.41
38303;BME280;24103;42.454;27.400;2023-05-11T10:22:49;101337.91;;;15.79;69.62
38303;BME280;24103;42.454;27.400;2023-05-11T10:25:17;101340.84;;;16.28;72.68
38303;BME280;24103;42.454;27.400;2023-05-11T10:27:42;101364.19;;;16.11;68.63
38303;BME280;24103;42.454;27.400;2023-05-11T10:30:09;101340.38;;;16.08;69.46
38303;BME280;24103;42.454;27.400;2023-05-11T10:32:36;101335.91;;;15.96;67.76
38303;BME280;24103;42.454;27.400;2023-05-11T10:35:02;101329.75;;;16.34;68.51
38303;BME280;24103;42.454;27.400;2023-05-11T10:37:29;101347.25;;;16.12;67.82
38303;BME280;24103;42.454;27.400;2023-05-11T10:39:56;101340.56;;;15.79;65.22
38303;BME280;24103;42.454;27.400;2023-05-11T10:43:02;101351.97;;;15.81;76.43
38303;BME280;24103;42.454;27.400;2023-05-11T10:51:37;101345.34;;;16.40;66.14
38303;BME280;24103;42.454;27.400;2023-05-11T10:56:41;101342.25;;;15.80;70.52
38303;BME280;24103;42.454;27.400;2023-05-11T11:02:03;101338.16;;;15.89;73.92
38303;BME280;24103;42.454;27.400;2023-05-11T11:04:49;101331.03;;;16.15;70.05
38303;BME280;24103;42.454;27.400;2023-05-11T11:07:15;101333.47;;;16.31;72.19
38303;BME280;24103;42.454;27.400;2023-05-11T11:12:14;101347.00;;;16.80;63.50
38303;BME280;24103;42.454;27.400;2023-05-11T11:15:00;101333.47;;;16.44;66.09
38303;BME280;24103;42.454;27.400;2023-05-11T11:17:28;101331.56;;;16.20;67.87
38303;BME280;24103;42.454;27.400;2023-05-11T11:19:56;101341.28;;;16.09;69.16
38303;BME280;24103;42.454;27.400;2023-05-11T11:22:51;101340.94;;;16.00;68.39
38303;BME280;24103;42.454;27.400;2023-05-11T11:26:10;101336.72;;;15.83;70.49
38303;BME280;24103;42.454;27.400;2023-05-11T11:31:25;101322.34;;;15.86;71.17
38303;BME280;24103;42.454;27.400;2023-05-11T11:33:52;101343.25;;;15.79;74.13
38303;BME280;24103;42.454;27.400;2023-05-11T11:36:17;101330.56;;;15.83;68.05
38303;BME280;24103;42.454;27.400;2023-05-11T11:38:58;101324.41;;;16.08;70.57
38303;BME280;24103;42.454;27.400;2023-05-11T11:41:29;101316.81;;;16.15;69.11
38303;BME280;24103;42.454;27.400;2023-05-11T11:43:55;101335.50;;;15.75;70.39
38303;BME280;24103;42.454;27.400;2023-05-11T11:46:28;101322.28;;;15.73;69.17
38303;BME280;24103;42.454;27.400;2023-05-11T11:49:20;101321.66;;;16.35;69.74
38303;BME280;24103;42.454;27.400;2023-05-11T11:51:51;101316.63;;;16.18;66.91
38303;BME280;24103;42.454;27.400;2023-05-11T11:54:36;101327.38;;;15.91;68.38
38303;BME280;24103;42.454;27.400;2023-05-11T11:57:01;101323.09;;;15.88;67.73
38303;BME280;24103;42.454;27.400;2023-05-11T11:59:29;101317.97;;;15.85;66.46
38303;BME280;24103;42.454;27.400;2023-05-11T12:01:55;101314.28;;;16.00;67.91
38303;BME280;24103;42.454;27.400;2023-05-11T12:06:54;101300.09;;;15.60;70.44
38303;BME280;24103;42.454;27.400;2023-05-11T12:09:21;101282.16;;;15.49;69.46
38303;BME280;24103;42.454;27.400;2023-05-11T12:11:47;101278.69;;;15.61;69.19
38303;BME280;24103;42.454;27.400;2023-05-11T12:14:14;101283.63;;;15.80;78.59
38303;BME280;24103;42.454;27.400;2023-05-11T12:16:42;101292.84;;;15.89;74.78
38303;BME280;24103;42.454;27.400;2023-05-11T12:19:07;101286.03;;;16.24;71.36
38303;BME280;24103;42.454;27.400;2023-05-11T12:21:33;101275.41;;;16.48;68.16
38303;BME280;24103;42.454;27.400;2023-05-11T12:24:01;101269.94;;;16.25;68.82
38303;BME280;24103;42.454;27.400;2023-05-11T12:26:28;101287.41;;;16.16;72.59
38303;BME280;24103;42.454;27.400;2023-05-11T12:29:14;101280.34;;;15.90;72.19
38303;BME280;24103;42.454;27.400;2023-05-11T12:31:44;101286.75;;;16.00;76.98
38303;BME280;24103;42.454;27.400;2023-05-11T12:34:17;101280.59;;;16.12;69.40
38303;BME280;24103;42.454;27.400;2023-05-11T12:36:44;101281.84;;;16.19;68.29
38303;BME280;24103;42.454;27.400;2023-05-11T12:41:47;101276.41;;;15.82;69.46
38303;BME280;24103;42.454;27.400;2023-05-11T12:44:14;101264.63;;;15.72;69.79
38303;BME280;24103;42.454;27.400;2023-05-11T12:46:40;101262.66;;;16.01;72.41
38303;BME280;24103;42.454;27.400;2023-05-11T12:49:08;101267.56;;;16.08;66.84
38303;BME280;24103;42.454;27.400;2023-05-11T12:51:50;101272.28;;;15.64;65.67
38303;BME280;24103;42.454;27.400;2023-05-11T12:54:38;101265.88;;;15.81;69.20
38303;BME280;24103;42.454;27.400;2023-05-11T12:57:06;101269.50;;;16.06;68.48
38303;BME280;24103;42.454;27.400;2023-05-11T12:59:35;101257.44;;;16.26;67.09
38303;BME280;24103;42.454;27.400;2023-05-11T13:02:18;101260.09;;;15.87;68.18
38303;BME280;24103;42.454;27.400;2023-05-11T13:04:46;101260.75;;;15.91;66.51
38303;BME280;24103;42.454;27.400;2023-05-11T13:07:13;101263.28;;;16.05;64.76
38303;BME280;24103;42.454;27.400;2023-05-11T13:09:39;101251.59;;;16.57;62.84
38303;BME280;24103;42.454;27.400;2023-05-11T13:12:15;101243.72;;;16.56;63.80
38303;BME280;24103;42.454;27.400;2023-05-11T13:14:49;101250.66;;;16.58;67.05
38303;BME280;24103;42.454;27.400;2023-05-11T13:17:35;101250.09;;;16.66;66.56